Time;durP1;ratioP1;P1;durP2;ratioP2;P2;SDS_P1;SDS_P2;PMS_P1;PMS_P2;Temp;Humidity;BMP_temperature;BMP_pressure;BME280_temperature;BME280_humidity;BME280_pressure;Samples;Min_cycle;Max_cycle;Signal;HPM_P1;HPM_P2
2020/12/25 00:00:59;;;;;;;37.17;25.00;;;;;;;10.93;79.09;99920.37;1723274;82;21560;-68
2020/12/25 00:03:30;;;;;;;43.58;27.40;;;;;;;10.91;79.20;99923.48;1720178;82;21118;-67
2020/12/25 00:05:58;;;;;;;42.80;28.85;;;;;;;10.93;79.20;99927.80;1744897;82;21130;-67
2020/12/25 00:08:25;;;;;;;36.28;23.95;;;;;;;10.95;79.18;99923.84;1734951;82;21534;-66
2020/12/25 00:10:54;;;;;;;33.75;22.37;;;;;;;10.97;79.11;99922.89;1720983;82;21528;-67
2020/12/25 00:13:21;;;;;;;39.65;26.93;;;;;;;10.97;79.23;99916.31;1745136;82;21138;-67
2020/12/25 00:15:49;;;;;;;38.28;25.85;;;;;;;11.00;79.20;99912.30;1723683;83;21592;-67
2020/12/25 00:18:16;;;;;;;41.48;26.77;;;;;;;11.00;79.28;99910.13;1745096;82;21094;-67
2020/12/25 00:20:51;;;;;;;39.75;24.35;;;;;;;11.02;79.16;99910.96;1744514;82;21097;-68
2020/12/25 00:23:21;;;;;;;40.65;27.02;;;;;;;11.00;79.30;99918.88;1745327;82;21149;-67
2020/12/25 00:25:51;;;;;;;37.88;25.72;;;;;;;11.03;79.21;99909.18;1743454;82;21236;-67
2020/12/25 00:28:18;;;;;;;41.40;25.70;;;;;;;10.99;79.34;99910.56;1735883;82;21141;-67
2020/12/25 00:30:46;;;;;;;35.08;25.48;;;;;;;10.93;79.53;99904.57;1713890;83;21298;-67
2020/12/25 00:33:15;;;;;;;34.88;24.30;;;;;;;10.91;79.66;99899.78;1715934;83;21178;-68
2020/12/25 00:35:43;;;;;;;43.20;28.38;;;;;;;10.92;79.82;99902.84;1734631;81;21231;-67
2020/12/25 00:38:11;;;;;;;38.65;26.87;;;;;;;10.92;79.79;99902.37;1729755;83;21656;-68
2020/12/25 00:40:44;;;;;;;37.85;26.75;;;;;;;10.95;79.73;99885.66;1729812;81;21609;-67
2020/12/25 00:43:13;;;;;;;39.27;26.77;;;;;;;10.97;79.65;99881.23;1729504;82;21177;-68
2020/12/25 00:45:42;;;;;;;38.92;24.95;;;;;;;10.96;79.59;99869.81;1745383;82;21577;-68
2020/12/25 00:48:10;;;;;;;41.00;27.02;;;;;;;10.96;79.64;99871.59;1699665;84;21695;-67
2020/12/25 00:50:39;;;;;;;39.10;26.95;;;;;;;10.96;79.57;99873.76;1744661;82;21121;-67
2020/12/25 00:53:07;;;;;;;36.80;26.07;;;;;;;10.96;79.58;99882.98;1711324;83;21150;-67
2020/12/25 00:55:34;;;;;;;37.67;25.17;;;;;;;10.96;79.64;99875.54;1717917;83;21153;-68
2020/12/25 00:58:02;;;;;;;36.00;26.52;;;;;;;10.95;79.76;99860.64;1722783;82;21520;-67
2020/12/25 01:00:30;;;;;;;36.70;26.48;;;;;;;11.00;79.55;99858.31;1701040;83;21596;-67
2020/12/25 01:02:57;;;;;;;41.73;29.18;;;;;;;11.01;79.47;99855.24;1720346;82;21601;-67
2020/12/25 01:05:25;;;;;;;43.15;28.00;;;;;;;11.00;79.49;99856.14;1728152;83;21442;-67
2020/12/25 01:07:52;;;;;;;36.25;27.13;;;;;;;11.01;79.42;99857.88;1744651;82;21583;-67
2020/12/25 01:10:21;;;;;;;42.25;29.02;;;;;;;11.03;79.33;99859.14;1744241;81;21122;-67
2020/12/25 01:12:49;;;;;;;40.60;27.55;;;;;;;11.01;79.28;99863.14;1742345;82;21133;-67
2020/12/25 01:15:17;;;;;;;41.02;27.98;;;;;;;11.03;79.15;99860.45;1745261;82;21130;-68
2020/12/25 01:17:44;;;;;;;42.25;28.45;;;;;;;11.03;79.05;99863.98;1741657;81;21167;-67
2020/12/25 01:20:12;;;;;;;36.17;26.57;;;;;;;10.98;79.04;99865.38;1748948;81;21119;-68
2020/12/25 01:22:39;;;;;;;35.28;25.40;;;;;;;11.01;78.90;99859.19;1701153;83;21589;-67
2020/12/25 01:25:07;;;;;;;38.02;26.42;;;;;;;11.01;78.85;99853.93;1709079;83;21288;-67
2020/12/25 01:27:34;;;;;;;40.75;27.75;;;;;;;10.94;78.75;99856.27;1731885;81;21726;-67
2020/12/25 01:30:03;;;;;;;41.20;28.15;;;;;;;10.95;78.84;99861.95;1695193;84;21613;-67
2020/12/25 01:32:34;;;;;;;43.98;29.95;;;;;;;10.79;78.88;99853.53;1716779;83;21161;-66
2020/12/25 01:35:02;;;;;;;41.80;30.17;;;;;;;10.82;78.77;99837.20;1731570;82;21705;-67
2020/12/25 01:37:30;;;;;;;38.67;27.57;;;;;;;10.79;78.67;99833.79;1708869;81;21651;-67
2020/12/25 01:40:00;;;;;;;39.98;28.92;;;;;;;10.70;78.64;99834.84;1706664;81;21604;-68
2020/12/25 01:42:27;;;;;;;45.35;29.63;;;;;;;10.66;78.65;99822.64;1697336;84;21153;-67
2020/12/25 01:44:54;;;;;;;39.85;27.55;;;;;;;10.66;78.54;99827.90;1709222;81;21141;-67
2020/12/25 01:47:22;;;;;;;45.40;28.42;;;;;;;10.64;78.46;99827.06;1706346;83;21612;-66
2020/12/25 01:49:49;;;;;;;38.58;26.95;;;;;;;10.53;78.60;99829.50;1698347;82;21537;-67
2020/12/25 01:52:16;;;;;;;39.67;27.22;;;;;;;10.59;78.34;99825.86;1694601;83;21181;-67
2020/12/25 01:54:46;;;;;;;36.08;25.80;;;;;;;10.53;78.27;99823.36;1727158;83;21126;-67
2020/12/25 01:57:15;;;;;;;41.55;26.95;;;;;;;10.52;78.06;99831.72;1708479;81;21528;-67
2020/12/25 01:59:43;;;;;;;39.60;28.93;;;;;;;10.47;78.03;99827.42;1722693;83;21117;-67
2020/12/25 02:02:10;;;;;;;46.73;30.23;;;;;;;10.46;77.92;99820.00;1731464;83;21742;-66
2020/12/25 02:04:40;;;;;;;42.67;28.00;;;;;;;10.41;77.77;99819.22;1708317;81;21158;-67
2020/12/25 02:07:07;;;;;;;42.23;28.12;;;;;;;10.36;77.70;99819.30;1706978;81;21168;-66
2020/12/25 02:09:35;;;;;;;40.75;28.65;;;;;;;10.36;77.58;99823.67;1714370;83;21442;-67
2020/12/25 02:12:02;;;;;;;45.67;30.02;;;;;;;10.27;77.76;99822.11;1729922;81;21110;-66
2020/12/25 02:14:30;;;;;;;46.48;28.17;;;;;;;10.28;77.75;99827.78;1706414;83;21600;-66
2020/12/25 02:16:57;;;;;;;40.80;28.12;;;;;;;10.29;77.67;99825.58;1678752;84;21614;-66
2020/12/25 02:19:25;;;;;;;46.35;29.20;;;;;;;10.29;77.65;99824.26;1701296;84;21118;-67
2020/12/25 02:21:53;;;;;;;41.02;27.07;;;;;;;10.30;77.49;99829.05;1700829;83;21184;-66
2020/12/25 02:24:20;;;;;;;44.08;29.82;;;;;;;10.26;77.43;99823.00;1666998;86;21178;-67
2020/12/25 02:26:48;;;;;;;45.33;29.70;;;;;;;10.24;77.52;99820.84;1668751;84;21195;-66
2020/12/25 02:29:15;;;;;;;48.28;30.32;;;;;;;10.18;77.41;99817.87;1691962;84;21145;-66
2020/12/25 02:31:43;;;;;;;46.28;30.85;;;;;;;10.17;77.45;99823.17;1701224;83;21296;-66
2020/12/25 02:34:11;;;;;;;43.83;28.83;;;;;;;10.02;77.66;99819.09;1687831;83;21150;-66
2020/12/25 02:36:39;;;;;;;43.25;28.27;;;;;;;9.97;77.75;99806.01;1668492;85;21609;-67
2020/12/25 02:39:07;;;;;;;38.40;27.15;;;;;;;9.98;77.73;99801.17;1679405;84;21159;-66
2020/12/25 02:41:34;;;;;;;44.55;29.63;;;;;;;9.92;77.81;99807.89;1742656;82;21151;-67
2020/12/25 02:44:02;;;;;;;40.85;28.10;;;;;;;9.88;77.80;99798.32;1717537;83;21573;-67
2020/12/25 02:46:30;;;;;;;41.80;29.02;;;;;;;9.86;77.71;99793.54;1718519;83;21180;-66
2020/12/25 02:48:58;;;;;;;42.60;27.50;;;;;;;9.79;77.67;99786.20;1707577;82;21628;-66
2020/12/25 02:51:26;;;;;;;41.00;27.07;;;;;;;9.69;77.77;99780.25;1699545;83;21203;-65
2020/12/25 02:53:54;;;;;;;37.58;25.88;;;;;;;9.62;77.76;99780.82;1668051;85;21346;-67
2020/12/25 02:56:23;;;;;;;40.75;25.25;;;;;;;9.62;77.66;99787.39;1660039;85;21630;-66
2020/12/25 02:58:50;;;;;;;35.73;25.55;;;;;;;9.59;77.60;99791.38;1665539;84;21624;-67
2020/12/25 03:01:18;;;;;;;33.58;23.12;;;;;;;9.60;77.48;99793.55;1665866;84;21538;-67
2020/12/25 03:03:45;;;;;;;38.78;25.75;;;;;;;9.58;77.34;99794.91;1689897;84;21138;-66
2020/12/25 03:06:13;;;;;;;35.00;23.20;;;;;;;9.58;77.22;99790.08;1643140;87;21641;-66
2020/12/25 03:08:40;;;;;;;34.43;24.40;;;;;;;9.53;77.09;99787.08;1693959;83;21668;-66
2020/12/25 03:11:11;;;;;;;33.78;23.52;;;;;;;9.52;77.10;99781.41;1673657;84;21182;-66
2020/12/25 03:13:39;;;;;;;39.83;26.10;;;;;;;9.49;77.04;99783.23;1668909;84;21245;-67
2020/12/25 03:16:07;;;;;;;38.58;24.67;;;;;;;9.45;76.99;99771.05;1674394;83;21635;-66
2020/12/25 03:18:34;;;;;;;35.33;24.40;;;;;;;9.42;76.97;99756.22;1695070;83;21601;-66
2020/12/25 03:21:02;;;;;;;36.98;24.63;;;;;;;9.31;77.00;99752.44;1673203;84;21205;-66
2020/12/25 03:23:29;;;;;;;39.67;25.10;;;;;;;9.35;76.84;99746.25;1671547;86;21186;-66
2020/12/25 03:25:57;;;;;;;35.55;24.63;;;;;;;9.32;76.74;99749.39;1687548;83;21680;-65
2020/12/25 03:28:24;;;;;;;35.05;24.30;;;;;;;9.30;76.68;99752.02;1695361;83;21585;-66
2020/12/25 03:30:52;;;;;;;34.18;24.10;;;;;;;9.28;76.81;99744.61;1671606;86;21585;-66
2020/12/25 03:33:19;;;;;;;34.10;25.37;;;;;;;9.28;76.77;99738.51;1682833;84;21593;-66
2020/12/25 03:35:50;;;;;;;38.05;25.32;;;;;;;9.27;76.72;99749.48;1701209;83;21265;-66
2020/12/25 03:38:19;;;;;;;36.25;24.60;;;;;;;9.26;76.71;99761.30;1676991;84;21321;-66
2020/12/25 03:40:46;;;;;;;32.20;22.77;;;;;;;9.25;76.68;99763.08;1685703;84;21565;-65
2020/12/25 03:43:14;;;;;;;34.83;23.85;;;;;;;9.25;76.65;99764.39;1699097;83;21182;-66
2020/12/25 03:45:41;;;;;;;31.68;22.73;;;;;;;9.26;76.51;99767.44;1678770;83;21190;-66
2020/12/25 03:48:09;;;;;;;36.88;24.25;;;;;;;9.27;76.50;99768.29;1647886;84;21182;-65
2020/12/25 03:50:39;;;;;;;36.05;23.05;;;;;;;9.21;76.53;99756.98;1673628;84;21587;-66
2020/12/25 03:53:06;;;;;;;35.85;24.82;;;;;;;9.19;76.45;99756.61;1685890;83;21170;-65
2020/12/25 03:55:34;;;;;;;37.53;23.90;;;;;;;9.16;76.57;99748.78;1693995;83;21572;-65
2020/12/25 03:58:02;;;;;;;32.35;23.55;;;;;;;9.15;76.58;99754.46;1698163;84;21181;-65
2020/12/25 04:00:30;;;;;;;33.60;24.70;;;;;;;9.14;76.49;99754.05;1674428;84;21157;-66
2020/12/25 04:02:57;;;;;;;34.20;24.00;;;;;;;9.15;76.41;99763.66;1676067;83;21339;-66
2020/12/25 04:05:25;;;;;;;34.33;23.83;;;;;;;9.14;76.40;99757.13;1676785;84;21181;-65
2020/12/25 04:07:52;;;;;;;34.48;25.08;;;;;;;9.16;76.31;99752.72;1694248;84;21654;-65
2020/12/25 04:10:20;;;;;;;32.70;23.50;;;;;;;9.14;76.23;99757.98;1676236;83;21173;-65
2020/12/25 04:12:48;;;;;;;31.07;22.95;;;;;;;9.15;76.20;99760.17;1675368;84;21198;-66
2020/12/25 04:15:15;;;;;;;33.50;24.25;;;;;;;9.11;76.21;99754.09;1678801;84;21627;-65
2020/12/25 04:17:43;;;;;;;34.83;24.18;;;;;;;9.12;76.20;99762.39;1682310;84;21185;-66
2020/12/25 04:20:11;;;;;;;36.73;23.85;;;;;;;9.09;76.05;99758.50;1701982;83;21138;-65
2020/12/25 04:22:38;;;;;;;27.75;19.10;;;;;;;9.08;76.03;99761.58;1698213;84;21622;-65
2020/12/25 04:25:06;;;;;;;31.05;21.95;;;;;;;9.05;76.03;99767.34;1671973;86;21177;-66
2020/12/25 04:27:38;;;;;;;34.08;23.10;;;;;;;9.03;76.06;99762.56;1673634;84;21201;-66
2020/12/25 04:30:06;;;;;;;30.55;21.30;;;;;;;9.02;76.03;99760.83;1674747;83;21313;-66
2020/12/25 04:32:34;;;;;;;31.17;21.75;;;;;;;8.99;76.04;99756.94;1678004;83;21569;-66
2020/12/25 04:35:02;;;;;;;28.15;20.17;;;;;;;8.97;75.97;99752.16;1692090;84;21324;-65
2020/12/25 04:37:30;;;;;;;29.67;21.12;;;;;;;9.00;75.96;99763.92;1701421;84;21308;-66
2020/12/25 04:39:58;;;;;;;34.15;23.05;;;;;;;8.99;75.95;99770.06;1682682;83;21589;-66
2020/12/25 04:42:27;;;;;;;28.98;21.93;;;;;;;8.97;75.89;99766.59;1679319;83;21207;-65
2020/12/25 04:44:55;;;;;;;31.17;21.95;;;;;;;8.94;75.84;99768.80;1671498;86;21206;-66
2020/12/25 04:47:22;;;;;;;29.55;21.95;;;;;;;8.90;75.92;99781.55;1689190;83;21620;-66
2020/12/25 04:49:50;;;;;;;29.98;20.90;;;;;;;8.90;75.89;99785.48;1637972;84;21288;-66
2020/12/25 04:52:17;;;;;;;31.33;22.60;;;;;;;8.91;75.92;99784.16;1701062;84;21605;-66
2020/12/25 04:54:47;;;;;;;35.60;23.15;;;;;;;8.81;76.17;99779.93;1698331;84;21170;-66
2020/12/25 04:57:14;;;;;;;30.62;22.13;;;;;;;8.76;76.31;99768.20;1701020;83;21106;-66
2020/12/25 04:59:42;;;;;;;28.27;19.87;;;;;;;8.73;76.29;99770.88;1685537;83;21149;-66
2020/12/25 05:02:10;;;;;;;30.55;21.57;;;;;;;8.75;76.29;99784.84;1667989;86;21649;-65
2020/12/25 05:04:38;;;;;;;33.38;23.00;;;;;;;8.77;76.27;99787.42;1719133;83;21177;-65
2020/12/25 05:07:05;;;;;;;34.20;21.57;;;;;;;8.75;76.29;99778.70;1729558;81;21625;-66
2020/12/25 05:09:33;;;;;;;35.28;21.85;;;;;;;8.76;76.25;99768.63;1640921;85;21145;-66
2020/12/25 05:12:00;;;;;;;32.93;22.00;;;;;;;8.76;76.13;99777.81;1721853;83;21157;-66
2020/12/25 05:14:34;;;;;;;30.25;21.23;;;;;;;8.75;76.04;99767.78;1730085;81;21664;-65
2020/12/25 05:17:01;;;;;;;29.90;20.85;;;;;;;8.77;75.94;99775.61;1731365;83;21616;-66
2020/12/25 05:19:31;;;;;;;30.85;22.05;;;;;;;8.75;75.97;99785.27;1698139;81;21149;-66
2020/12/25 05:22:00;;;;;;;30.15;20.88;;;;;;;8.75;75.86;99778.28;1670043;84;21215;-65
2020/12/25 05:24:37;;;;;;;34.83;23.95;;;;;;;8.74;75.86;99778.28;1670238;84;22658;-65
2020/12/25 05:27:13;;;;;;;33.38;21.68;;;;;;;8.70;75.85;99777.47;1667189;84;21153;-66
2020/12/25 05:29:41;;;;;;;28.70;20.08;;;;;;;8.68;75.91;99762.63;1634341;85;21129;-66
2020/12/25 05:32:09;;;;;;;31.12;23.00;;;;;;;8.66;75.93;99767.02;1676313;85;21207;-66
2020/12/25 05:34:37;;;;;;;30.35;21.75;;;;;;;8.65;75.98;99762.23;1670887;84;21604;-65
2020/12/25 05:37:07;;;;;;;34.73;22.98;;;;;;;8.64;76.01;99757.87;1655117;85;21201;-66
2020/12/25 05:39:37;;;;;;;36.48;23.67;;;;;;;8.65;75.89;99758.73;1680885;84;21530;-66
2020/12/25 05:42:07;;;;;;;33.23;21.35;;;;;;;8.64;75.91;99769.69;1651560;86;21195;-65
2020/12/25 05:44:41;;;;;;;32.42;23.00;;;;;;;8.58;76.06;99776.32;1672998;84;21572;-66
2020/12/25 05:47:08;;;;;;;31.55;22.73;;;;;;;8.55;76.11;99770.69;1663643;84;21215;-66
2020/12/25 05:49:36;;;;;;;35.45;23.67;;;;;;;8.50;76.23;99775.55;1673529;84;21680;-66
2020/12/25 05:52:03;;;;;;;33.02;21.48;;;;;;;8.48;76.22;99788.24;1659364;84;21580;-66
2020/12/25 05:54:33;;;;;;;31.48;22.50;;;;;;;8.48;76.06;99780.80;1671215;84;21619;-67
2020/12/25 05:57:00;;;;;;;31.40;21.57;;;;;;;8.52;75.91;99774.66;1694666;84;21150;-66
2020/12/25 05:59:30;;;;;;;31.48;22.48;;;;;;;8.50;75.80;99782.99;1672188;84;21638;-67
2020/12/25 06:02:03;;;;;;;33.33;22.25;;;;;;;8.46;75.85;99777.33;1719355;83;21329;-66
2020/12/25 06:04:33;;;;;;;31.33;22.82;;;;;;;8.44;75.87;99769.92;1674178;83;21182;-66
2020/12/25 06:07:01;;;;;;;30.32;20.30;;;;;;;8.43;75.89;99759.86;1668641;84;21244;-66
2020/12/25 06:09:33;;;;;;;32.25;22.02;;;;;;;8.42;75.77;99762.06;1674477;83;21133;-66
2020/12/25 06:12:01;;;;;;;32.10;22.52;;;;;;;8.44;75.71;99776.02;1683597;84;21215;-65
2020/12/25 06:14:28;;;;;;;33.25;23.35;;;;;;;8.45;75.76;99767.73;1664633;84;21646;-66
2020/12/25 06:17:09;;;;;;;26.20;19.40;;;;;;;8.43;75.88;99772.13;1666995;84;21352;-65
2020/12/25 06:19:49;;;;;;;31.37;21.57;;;;;;;8.45;75.97;99767.73;1682273;83;21077;-66
2020/12/25 06:22:22;;;;;;;32.58;23.65;;;;;;;8.45;76.06;99784.31;1701660;83;21129;-66
2020/12/25 06:24:51;;;;;;;34.15;23.62;;;;;;;8.48;76.13;99778.18;1676135;84;21304;-65
2020/12/25 06:27:18;;;;;;;34.00;21.93;;;;;;;8.51;76.17;99770.73;1673335;83;21796;-66
2020/12/25 06:29:46;;;;;;;31.37;21.50;;;;;;;8.57;76.04;99771.53;1698209;84;21209;-66
2020/12/25 06:32:14;;;;;;;33.98;24.25;;;;;;;8.62;75.96;99774.94;1645710;86;21627;-66
2020/12/25 06:34:44;;;;;;;33.42;23.90;;;;;;;8.64;75.98;99771.00;1669122;84;21586;-65
2020/12/25 06:37:15;;;;;;;36.98;24.30;;;;;;;8.65;75.95;99775.35;1695211;83;21136;-66
2020/12/25 06:39:50;;;;;;;37.03;22.90;;;;;;;8.67;75.95;99774.89;1710288;83;21145;-65
2020/12/25 06:42:33;;;;;;;31.40;21.80;;;;;;;8.66;75.97;99765.28;1669678;85;21760;-66
2020/12/25 06:45:03;;;;;;;33.25;23.47;;;;;;;8.66;76.00;99770.53;1671514;84;21166;-66
2020/12/25 06:47:36;;;;;;;34.18;23.22;;;;;;;8.63;76.06;99776.67;1733527;82;21556;-65
2020/12/25 06:50:12;;;;;;;30.97;22.50;;;;;;;8.65;76.01;99780.59;1690037;82;21164;-65
2020/12/25 06:53:00;;;;;;;32.78;21.65;;;;;;;8.59;76.22;99788.13;1702665;83;21665;-66
2020/12/25 06:55:43;;;;;;;31.33;21.65;;;;;;;8.60;76.26;99779.80;1705686;82;21267;-65
2020/12/25 06:58:13;;;;;;;30.30;22.02;;;;;;;8.62;76.21;99773.63;1709652;82;21468;-65
2020/12/25 07:00:40;;;;;;;27.27;19.95;;;;;;;8.63;76.18;99779.75;1675144;84;21651;-66
2020/12/25 07:03:13;;;;;;;30.20;20.62;;;;;;;8.63;76.22;99778.44;1673322;86;21168;-65
2020/12/25 07:05:49;;;;;;;31.17;20.72;;;;;;;8.64;76.21;99781.48;1673845;84;21130;-65
2020/12/25 07:08:30;;;;;;;33.33;23.80;;;;;;;8.66;76.18;99775.78;1709016;82;21143;-64
2020/12/25 07:11:06;;;;;;;33.20;23.07;;;;;;;8.68;76.22;99774.43;1712026;83;21173;-66
2020/12/25 07:13:35;;;;;;;29.50;20.17;;;;;;;8.70;76.27;99775.28;1672064;86;21165;-65
2020/12/25 07:16:05;;;;;;;30.02;22.30;;;;;;;8.72;76.37;99782.69;1675863;84;21155;-66
2020/12/25 07:18:35;;;;;;;31.95;21.90;;;;;;;8.80;76.21;99791.78;1673845;84;21176;-64
2020/12/25 07:21:08;;;;;;;31.60;21.33;;;;;;;8.78;76.37;99791.78;1674015;84;21239;-65
2020/12/25 07:23:46;;;;;;;29.87;20.82;;;;;;;8.78;76.34;99791.36;1715222;81;21565;-66
2020/12/25 07:26:15;;;;;;;32.17;21.97;;;;;;;8.73;76.52;99804.98;1719703;81;21577;-65
2020/12/25 07:28:43;;;;;;;31.00;22.02;;;;;;;8.88;76.17;99806.52;1715788;83;21161;-65
2020/12/25 07:31:11;;;;;;;31.00;21.97;;;;;;;8.90;76.14;99815.66;1728094;81;21149;-65
2020/12/25 07:33:39;;;;;;;30.48;23.02;;;;;;;8.87;76.19;99819.64;1735995;81;21181;-65
2020/12/25 07:36:10;;;;;;;36.25;23.62;;;;;;;9.01;75.95;99824.72;1676664;84;21195;-65
2020/12/25 07:38:38;;;;;;;31.60;22.00;;;;;;;9.06;76.01;99823.74;1702177;83;21613;-66
2020/12/25 07:41:06;;;;;;;32.13;22.50;;;;;;;9.10;76.03;99828.48;1738881;81;21179;-65
2020/12/25 07:43:34;;;;;;;30.80;22.87;;;;;;;9.15;75.93;99834.55;1746952;81;21572;-65
2020/12/25 07:46:02;;;;;;;32.58;23.00;;;;;;;9.19;75.94;99838.86;1700704;83;21307;-65
2020/12/25 07:48:29;;;;;;;30.88;22.60;;;;;;;9.22;75.88;99850.63;1715144;83;21169;-64
2020/12/25 07:50:57;;;;;;;32.85;24.40;;;;;;;9.28;75.72;99863.25;1760131;81;21529;-65
2020/12/25 07:53:25;;;;;;;31.37;22.55;;;;;;;9.25;75.88;99864.17;1732360;81;21148;-65
2020/12/25 07:55:53;;;;;;;29.05;21.10;;;;;;;9.27;75.93;99860.20;1729207;83;21158;-64
2020/12/25 07:58:21;;;;;;;28.85;21.65;;;;;;;9.33;75.93;99866.67;1731325;82;21161;-65
2020/12/25 08:00:49;;;;;;;28.85;22.58;;;;;;;9.40;75.85;99875.31;1717987;83;21169;-64
2020/12/25 08:03:17;;;;;;;31.23;22.58;;;;;;;9.46;75.82;99871.28;1719212;83;21098;-65
2020/12/25 08:05:45;;;;;;;29.80;22.00;;;;;;;9.47;75.79;99867.34;1720060;83;21628;-64
2020/12/25 08:08:14;;;;;;;28.60;21.35;;;;;;;9.51;75.85;99862.89;1668811;81;21125;-65
2020/12/25 08:10:41;;;;;;;32.95;24.02;;;;;;;9.60;75.82;99859.23;1723445;83;21581;-64
2020/12/25 08:13:10;;;;;;;34.18;24.52;;;;;;;9.67;75.84;99869.64;1688628;83;21284;-65
2020/12/25 08:15:38;;;;;;;34.38;24.67;;;;;;;9.73;75.56;99884.42;1648643;85;21615;-65
2020/12/25 08:18:07;;;;;;;29.90;22.67;;;;;;;9.81;75.89;99872.03;1672685;85;21608;-65
2020/12/25 08:20:35;;;;;;;32.83;24.12;;;;;;;9.90;75.81;99877.56;1675640;85;21167;-64
2020/12/25 08:23:04;;;;;;;36.33;25.10;;;;;;;9.97;75.64;99865.16;1721949;82;21134;-65
2020/12/25 08:25:32;;;;;;;36.28;25.90;;;;;;;10.03;75.45;99865.52;1707671;82;21194;-65
2020/12/25 08:27:59;;;;;;;33.00;24.50;;;;;;;10.11;75.00;99879.39;1672763;86;21956;-65
2020/12/25 08:30:27;;;;;;;32.75;24.82;;;;;;;10.14;74.80;99864.87;1672700;86;21299;-65
2020/12/25 08:33:03;;;;;;;34.48;24.25;;;;;;;10.14;74.48;99850.42;1673184;86;21639;-64
2020/12/25 08:35:31;;;;;;;33.65;25.50;;;;;;;10.09;74.48;99844.38;1674840;85;21165;-65
2020/12/25 08:38:03;;;;;;;33.18;24.23;;;;;;;10.11;74.47;99828.97;1676154;86;21616;-67
2020/12/25 08:40:33;;;;;;;30.77;24.02;;;;;;;10.13;74.50;99831.59;1668260;86;21640;-65
2020/12/25 08:43:14;;;;;;;34.15;23.83;;;;;;;10.13;74.21;99827.64;1670169;84;21718;-66
2020/12/25 08:46:02;;;;;;;30.37;23.07;;;;;;;10.17;74.40;99829.75;1690405;84;21139;-65
2020/12/25 08:48:32;;;;;;;30.27;22.60;;;;;;;10.20;74.33;99830.55;1680536;84;21154;-65
2020/12/25 08:51:15;;;;;;;32.17;24.23;;;;;;;10.26;74.40;99836.16;1673347;84;21596;-65
2020/12/25 08:53:55;;;;;;;31.50;22.75;;;;;;;10.32;74.58;99838.67;1706361;82;21293;-64
2020/12/25 08:56:24;;;;;;;34.13;24.52;;;;;;;10.40;74.49;99842.48;1701072;83;21185;-66
2020/12/25 08:59:01;;;;;;;35.63;25.12;;;;;;;10.44;74.61;99838.89;1682061;83;21801;-65
2020/12/25 09:01:31;;;;;;;27.02;20.20;;;;;;;10.50;74.60;99840.09;1672071;84;21166;-66
2020/12/25 09:04:01;;;;;;;32.95;24.40;;;;;;;10.57;74.07;99839.50;1672254;86;21326;-66
2020/12/25 09:06:29;;;;;;;37.03;25.43;;;;;;;10.58;74.05;99869.33;1673828;86;21199;-65
2020/12/25 09:08:58;;;;;;;33.18;24.23;;;;;;;10.59;73.65;99864.48;1684841;84;21188;-65
2020/12/25 09:11:26;;;;;;;32.08;25.10;;;;;;;10.58;73.60;99868.86;1662055;86;21218;-64
2020/12/25 09:13:54;;;;;;;32.58;24.72;;;;;;;10.54;73.45;99858.86;1672799;86;21173;-66
2020/12/25 09:16:22;;;;;;;33.73;24.45;;;;;;;10.53;73.48;99861.51;1675954;86;21189;-66
2020/12/25 09:18:50;;;;;;;31.48;22.58;;;;;;;10.57;73.59;99857.92;1655429;84;21672;-66
2020/12/25 09:21:18;;;;;;;35.10;23.22;;;;;;;10.56;73.37;99850.48;1676006;84;21205;-65
2020/12/25 09:23:46;;;;;;;30.90;22.50;;;;;;;10.53;73.35;99839.14;1665746;85;21580;-64
2020/12/25 09:26:15;;;;;;;29.10;22.50;;;;;;;10.58;73.53;99834.66;1675391;85;21157;-66
2020/12/25 09:28:43;;;;;;;30.37;23.07;;;;;;;10.63;73.51;99833.23;1689959;84;21300;-65
2020/12/25 09:31:13;;;;;;;30.25;21.93;;;;;;;10.62;73.21;99845.53;1752881;81;21129;-67
2020/12/25 09:33:41;;;;;;;31.52;24.85;;;;;;;10.67;73.12;99838.41;1757384;81;21177;-67
2020/12/25 09:36:10;;;;;;;33.38;24.92;;;;;;;10.67;73.09;99838.41;1722536;83;21736;-66
2020/12/25 09:38:43;;;;;;;33.50;26.00;;;;;;;10.73;73.43;99836.55;1723963;81;21557;-67
2020/12/25 09:41:14;;;;;;;34.75;23.15;;;;;;;10.73;73.07;99827.34;1679359;84;21191;-65
2020/12/25 09:43:42;;;;;;;37.35;27.62;;;;;;;10.77;73.13;99838.22;1649925;85;21306;-67
2020/12/25 09:46:10;;;;;;;39.53;29.40;;;;;;;10.69;73.28;99848.89;1731678;82;21501;-66
2020/12/25 09:48:38;;;;;;;37.30;27.60;;;;;;;10.70;73.49;99844.93;1735268;81;21252;-65
2020/12/25 09:51:06;;;;;;;39.78;29.77;;;;;;;10.80;73.83;99844.73;1762073;81;21128;-67
2020/12/25 09:53:33;;;;;;;35.20;27.60;;;;;;;10.84;73.39;99834.09;1762164;81;21597;-68
2020/12/25 09:56:02;;;;;;;43.45;32.78;;;;;;;10.90;73.38;99833.55;1752943;81;21121;-65
2020/12/25 09:58:30;;;;;;;36.63;27.70;;;;;;;10.90;72.80;99829.12;1733910;81;21291;-67
2020/12/25 10:00:59;;;;;;;34.65;25.68;;;;;;;10.88;73.15;99817.77;1702402;83;21165;-65
2020/12/25 10:03:26;;;;;;;43.45;33.42;;;;;;;10.93;73.15;99832.16;1701999;83;21178;-65
2020/12/25 10:05:57;;;;;;;41.00;32.53;;;;;;;10.96;73.05;99830.78;1721658;83;21173;-68
2020/12/25 10:08:24;;;;;;;33.73;26.70;;;;;;;11.00;73.16;99828.03;1670584;85;21592;-68
2020/12/25 10:10:56;;;;;;;40.73;31.12;;;;;;;10.98;72.18;99821.08;1661271;85;21184;-68
2020/12/25 10:13:25;;;;;;;46.02;36.08;;;;;;;10.97;72.64;99822.83;1711197;83;21142;-68
2020/12/25 10:15:53;;;;;;;42.53;32.40;;;;;;;11.01;73.04;99821.86;1721104;83;21113;-67
2020/12/25 10:18:22;;;;;;;39.10;29.35;;;;;;;11.07;73.04;99816.89;1718672;81;21141;-66
2020/12/25 10:20:50;;;;;;;35.10;26.80;;;;;;;11.06;72.86;99813.84;1675694;85;21121;-65
2020/12/25 10:23:18;;;;;;;66.02;45.25;;;;;;;11.10;72.80;99811.55;1672530;84;21176;-66
2020/12/25 10:25:47;;;;;;;64.32;43.90;;;;;;;11.11;72.18;99810.65;1670121;84;21164;-66
2020/12/25 10:28:28;;;;;;;37.35;27.55;;;;;;;11.05;72.28;99801.58;1730153;82;21153;-65
2020/12/25 10:30:55;;;;;;;37.03;27.17;;;;;;;11.05;72.76;99804.67;1781095;79;21143;-68
2020/12/25 10:33:23;;;;;;;34.92;25.23;;;;;;;11.10;72.86;99785.22;1718067;82;21284;-68
2020/12/25 10:35:51;;;;;;;32.53;24.70;;;;;;;11.16;73.04;99790.80;1703773;82;21155;-64
2020/12/25 10:38:19;;;;;;;40.95;27.27;;;;;;;11.21;72.91;99789.37;1723027;82;21142;-66
2020/12/25 10:40:48;;;;;;;35.92;27.70;;;;;;;11.24;72.70;99783.59;1735082;82;21142;-63
2020/12/25 10:43:24;;;;;;;35.80;27.75;;;;;;;11.33;72.83;99778.53;1816072;77;22167;-63
2020/12/25 10:45:52;;;;;;;38.78;28.42;;;;;;;11.24;73.04;99778.32;1777299;80;21166;-65
2020/12/25 10:48:28;;;;;;;33.10;25.40;;;;;;;11.25;73.04;99774.78;1775733;80;21100;-63
2020/12/25 10:50:58;;;;;;;39.80;29.23;;;;;;;11.30;72.77;99772.87;1756310;80;21186;-64
2020/12/25 10:53:26;;;;;;;39.20;29.80;;;;;;;11.37;72.33;99767.45;1775136;80;21586;-63
2020/12/25 10:55:54;;;;;;;43.23;31.45;;;;;;;11.34;72.34;99774.11;1777401;80;21115;-63
2020/12/25 10:58:22;;;;;;;39.40;30.02;;;;;;;11.39;72.71;99771.80;1774950;80;21151;-64
2020/12/25 11:00:49;;;;;;;41.25;31.33;;;;;;;11.37;73.10;99760.43;1777416;79;21583;-66
2020/12/25 11:03:17;;;;;;;43.35;30.00;;;;;;;11.48;73.38;99752.70;1778432;80;21625;-69
2020/12/25 11:05:48;;;;;;;39.33;29.90;;;;;;;11.47;73.79;99772.06;1718401;83;21537;-68
2020/12/25 11:08:18;;;;;;;39.80;27.73;;;;;;;11.58;73.03;99769.55;1701041;83;21497;-64
2020/12/25 11:10:47;;;;;;;35.65;27.95;;;;;;;11.59;72.69;99762.05;1723010;82;21142;-66
2020/12/25 11:13:14;;;;;;;36.45;28.55;;;;;;;11.63;72.95;99768.09;1726892;83;21593;-63
2020/12/25 11:15:43;;;;;;;38.35;29.70;;;;;;;11.72;72.77;99774.89;1697728;82;21167;-63
2020/12/25 11:18:10;;;;;;;33.75;26.65;;;;;;;11.78;72.96;99771.24;1713320;83;21170;-63
2020/12/25 11:20:38;;;;;;;35.50;26.57;;;;;;;11.81;72.50;99771.16;1732914;83;21170;-67
2020/12/25 11:23:06;;;;;;;35.83;27.82;;;;;;;11.88;72.13;99776.69;1729232;82;21292;-63
2020/12/25 11:25:36;;;;;;;34.30;25.95;;;;;;;11.91;71.99;99779.23;1732809;82;21299;-63
2020/12/25 11:28:03;;;;;;;37.83;28.85;;;;;;;11.93;71.63;99791.89;1713985;82;21150;-63
2020/12/25 11:30:32;;;;;;;41.53;28.38;;;;;;;11.88;71.56;99795.99;1735445;82;21146;-67